createdAt,value
2022-12-16T00:00:20.558Z,67.49
2022-12-16T00:01:28.584Z,65.53
2022-12-16T00:02:32.433Z,67.81
2022-12-16T00:03:40.966Z,72.69
2022-12-16T00:04:44.862Z,66.60
2022-12-16T00:05:53.036Z,63.90
2022-12-16T00:06:58.662Z,68.35
2022-12-16T00:08:08.049Z,68.11
2022-12-16T00:09:12.932Z,65.91
2022-12-16T00:10:20.489Z,66.02
2022-12-16T00:11:24.800Z,64.92
2022-12-16T00:12:30.995Z,63.15
2022-12-16T00:13:40.531Z,65.88
2022-12-16T00:14:47.359Z,64.64
2022-12-16T00:15:50.685Z,66.44
2022-12-16T00:16:56.593Z,68.19
2022-12-16T00:17:59.958Z,63.46
2022-12-16T00:19:06.256Z,65.57
2022-12-16T00:20:12.555Z,65.79
2022-12-16T00:21:18.885Z,77.77
2022-12-16T00:22:22.851Z,62.85
2022-12-16T00:23:32.514Z,65.68
2022-12-16T00:24:36.516Z,64.32
2022-12-16T00:25:46.048Z,64.81
2022-12-16T00:26:52.605Z,71.47
2022-12-16T00:28:00.468Z,67.73
2022-12-16T00:29:07.280Z,65.55
2022-12-16T00:30:15.257Z,65.99
2022-12-16T00:31:22.115Z,66.57
2022-12-16T00:32:25.497Z,66.04
2022-12-16T00:33:32.573Z,67.77
2022-12-16T00:34:36.273Z,67.09
2022-12-16T00:35:45.886Z,70.81
2022-12-16T00:36:52.992Z,66.44
2022-12-16T00:37:56.335Z,68.56
2022-12-16T00:39:06.438Z,68.37
2022-12-16T00:40:11.976Z,67.38
2022-12-16T00:41:17.976Z,67.73
2022-12-16T00:42:22.200Z,65.49
2022-12-16T00:43:28.552Z,69.03
2022-12-16T00:44:32.058Z,66.72
2022-12-16T00:45:39.305Z,67.37
2022-12-16T00:46:42.842Z,67.46
2022-12-16T00:47:54.407Z,68.87
2022-12-16T00:48:58.616Z,67.03
2022-12-16T00:50:05.128Z,65.71
2022-12-16T00:51:08.535Z,67.08
2022-12-16T00:52:14.409Z,68.69
2022-12-16T00:53:18.993Z,71.75
2022-12-16T00:54:32.116Z,66.16
2022-12-16T00:55:35.450Z,67.57
2022-12-16T00:56:41.508Z,67.02
2022-12-16T00:57:45.758Z,66.62
2022-12-16T00:58:52.520Z,68.03
2022-12-16T00:59:58.224Z,65.44
2022-12-16T01:01:06.025Z,64.57
2022-12-16T01:02:11.332Z,64.86
2022-12-16T01:03:21.470Z,72.23
2022-12-16T01:04:29.678Z,69.00
2022-12-16T01:05:33.084Z,72.61
2022-12-16T01:06:39.117Z,73.40
2022-12-16T01:07:42.994Z,72.13
2022-12-16T01:08:49.485Z,72.40
2022-12-16T01:09:56.271Z,76.22
2022-12-16T01:11:02.278Z,76.88
2022-12-16T01:12:06.646Z,80.05
2022-12-16T01:13:12.922Z,82.96
2022-12-16T01:14:19.652Z,80.44
2022-12-16T01:15:24.290Z,78.63
2022-12-16T01:16:30.424Z,74.30
2022-12-16T01:17:35.303Z,74.68
2022-12-16T01:18:41.573Z,75.57
2022-12-16T01:19:47.569Z,70.39
2022-12-16T01:20:51.881Z,68.45
2022-12-16T01:21:57.825Z,68.55
2022-12-16T01:23:01.532Z,67.83
2022-12-16T01:24:13.315Z,68.51
2022-12-16T01:25:19.432Z,66.34
2022-12-16T01:26:26.972Z,72.40
2022-12-16T01:27:30.899Z,68.52
2022-12-16T01:28:36.852Z,70.69
2022-12-16T01:29:40.806Z,64.50
2022-12-16T01:30:46.767Z,65.84
2022-12-16T01:31:51.560Z,68.89
2022-12-16T01:32:58.241Z,71.21
2022-12-16T01:34:01.529Z,70.30
2022-12-16T01:35:29.489Z,67.33
2022-12-16T01:36:35.626Z,63.59
2022-12-16T01:37:40.089Z,68.59
2022-12-16T01:38:48.084Z,70.91
2022-12-16T01:39:52.580Z,70.67
2022-12-16T01:41:01.364Z,67.39
2022-12-16T01:42:12.368Z,65.68
2022-12-16T01:43:24.427Z,66.41
2022-12-16T01:44:28.290Z,66.25
2022-12-16T01:45:38.924Z,65.28
2022-12-16T01:46:47.645Z,66.22
2022-12-16T01:47:58.064Z,66.87
2022-12-16T01:49:14.401Z,65.08
2022-12-16T01:50:19.558Z,65.99
2022-12-16T01:51:33.215Z,70.45
2022-12-16T01:52:44.442Z,68.13
2022-12-16T01:53:58.976Z,66.08
2022-12-16T01:55:12.439Z,68.06
2022-12-16T01:56:27.718Z,64.47
2022-12-16T01:57:41.151Z,67.35
2022-12-16T01:58:49.748Z,65.19
2022-12-16T01:59:57.940Z,64.61
2022-12-16T02:01:06.403Z,64.84
2022-12-16T02:02:12.172Z,65.92
2022-12-16T02:03:19.869Z,63.66
2022-12-16T02:04:23.411Z,62.93
2022-12-16T02:05:32.041Z,65.03
2022-12-16T02:06:36.212Z,62.38
2022-12-16T02:07:42.105Z,62.55
2022-12-16T02:08:47.981Z,63.88
2022-12-16T02:09:52.167Z,64.98
2022-12-16T02:11:26.850Z,62.45
2022-12-16T02:12:52.510Z,63.94
2022-12-16T02:14:39.196Z,62.04
2022-12-16T02:15:57.843Z,64.09
2022-12-16T02:17:17.485Z,63.25
2022-12-16T02:18:39.702Z,65.70
2022-12-16T02:20:19.883Z,65.92
2022-12-16T02:21:51.840Z,62.54
2022-12-16T02:23:37.016Z,69.41
2022-12-16T02:25:35.637Z,69.32
2022-12-16T02:27:30.208Z,64.88
2022-12-16T02:29:12.886Z,66.06
2022-12-16T02:30:56.508Z,66.50
2022-12-16T02:32:20.139Z,66.67
2022-12-16T02:34:13.617Z,66.81
2022-12-16T02:35:36.065Z,60.32
2022-12-16T02:37:05.871Z,62.49
2022-12-16T02:38:29.019Z,65.50
2022-12-16T02:39:40.134Z,68.58
2022-12-16T02:40:58.791Z,64.33
2022-12-16T02:42:17.450Z,62.87
2022-12-16T02:43:53.633Z,65.29
2022-12-16T02:45:09.196Z,64.12
2022-12-16T02:46:20.164Z,65.13
2022-12-16T02:47:27.206Z,66.66
2022-12-16T02:48:30.805Z,63.37
2022-12-16T02:49:53.177Z,67.32
2022-12-16T02:50:56.984Z,64.16
2022-12-16T02:52:05.492Z,65.66
2022-12-16T02:53:13.871Z,64.44
2022-12-16T02:54:19.449Z,67.98
2022-12-16T02:55:41.454Z,65.72
2022-12-16T02:57:06.085Z,69.05
2022-12-16T02:58:28.244Z,64.07
2022-12-16T02:59:49.757Z,62.72
2022-12-16T03:01:11.961Z,63.95
2022-12-16T03:02:31.383Z,66.24
2022-12-16T03:03:49.780Z,66.85
2022-12-16T03:05:08.938Z,64.38
2022-12-16T03:06:22.266Z,65.10
2022-12-16T03:07:32.515Z,65.82
2022-12-16T03:08:47.212Z,71.68
2022-12-16T03:09:55.311Z,72.24
2022-12-16T03:11:08.389Z,68.25
2022-12-16T03:12:18.569Z,69.20
2022-12-16T03:13:28.064Z,69.73
2022-12-16T03:14:39.696Z,69.06
2022-12-16T03:15:51.590Z,69.66
2022-12-16T03:16:56.117Z,67.84
2022-12-16T03:18:10.873Z,73.14
2022-12-16T03:19:14.871Z,70.76
2022-12-16T03:20:30.455Z,74.68
2022-12-16T03:21:48.120Z,68.92
2022-12-16T03:22:55.827Z,65.14
2022-12-16T03:24:08.555Z,66.81
2022-12-16T03:25:12.744Z,65.89
2022-12-16T03:26:27.999Z,65.81
2022-12-16T03:27:46.752Z,66.38
2022-12-16T03:29:02.256Z,65.40
2022-12-16T03:30:13.556Z,65.90
2022-12-16T03:31:41.918Z,67.60
2022-12-16T03:32:57.182Z,66.79
2022-12-16T03:34:17.936Z,69.32
2022-12-16T03:35:29.267Z,68.23
2022-12-16T03:36:42.856Z,67.90
2022-12-16T03:37:53.371Z,70.00
2022-12-16T03:39:02.820Z,69.14
2022-12-16T03:40:14.887Z,66.61
2022-12-16T03:41:24.136Z,66.42
2022-12-16T03:42:31.590Z,67.99
2022-12-16T03:43:35.560Z,72.44
2022-12-16T03:44:42.776Z,68.97
2022-12-16T03:45:52.091Z,67.15
2022-12-16T03:46:58.226Z,69.92
2022-12-16T03:48:02.426Z,68.84
2022-12-16T03:49:11.023Z,71.09
2022-12-16T03:50:14.760Z,69.47
2022-12-16T03:51:21.739Z,69.32
2022-12-16T03:52:25.105Z,71.26
2022-12-16T03:53:32.350Z,71.80
2022-12-16T03:54:38.600Z,70.90
2022-12-16T03:55:41.918Z,68.51
2022-12-16T03:56:47.883Z,71.74
2022-12-16T03:57:51.293Z,71.98
2022-12-16T03:58:58.919Z,70.97
2022-12-16T04:00:02.296Z,70.65
2022-12-16T04:01:18.642Z,70.31
2022-12-16T04:02:22.249Z,71.47
2022-12-16T04:03:28.339Z,71.19
2022-12-16T04:04:35.231Z,71.51
2022-12-16T04:05:41.703Z,71.11
2022-12-16T04:06:45.095Z,69.46
2022-12-16T04:07:51.080Z,67.35
2022-12-16T04:08:54.575Z,70.51
2022-12-16T04:10:01.376Z,70.84
2022-12-16T04:11:19.735Z,71.78
2022-12-16T04:12:38.287Z,67.85
2022-12-16T04:13:56.668Z,72.95
2022-12-16T04:15:15.903Z,71.64
2022-12-16T04:16:34.183Z,69.31
2022-12-16T04:17:52.804Z,70.84
2022-12-16T04:19:11.356Z,71.41
2022-12-16T04:20:40.114Z,66.71
2022-12-16T04:21:58.532Z,68.87
2022-12-16T04:23:17.788Z,68.25
2022-12-16T04:24:32.036Z,67.93
2022-12-16T04:25:41.504Z,69.61
2022-12-16T04:26:59.768Z,66.94
2022-12-16T04:28:06.548Z,63.40
2022-12-16T04:29:09.854Z,62.44
2022-12-16T04:30:23.295Z,66.57
2022-12-16T04:31:27.637Z,64.48
2022-12-16T04:32:56.204Z,63.44
2022-12-16T04:34:14.595Z,59.74
2022-12-16T04:35:36.779Z,62.40
2022-12-16T04:37:04.645Z,63.52
2022-12-16T04:38:23.094Z,61.43
2022-12-16T04:39:50.185Z,58.92
2022-12-16T04:41:08.709Z,60.18
2022-12-16T04:42:27.664Z,64.52
2022-12-16T04:43:46.074Z,63.60
2022-12-16T04:45:04.596Z,63.32
2022-12-16T04:46:23.069Z,63.44
2022-12-16T04:47:42.297Z,63.87
2022-12-16T04:49:00.698Z,64.94
2022-12-16T04:50:19.347Z,64.26
2022-12-16T04:51:40.244Z,64.41
2022-12-16T04:52:59.341Z,63.98
2022-12-16T04:54:17.988Z,65.95
2022-12-16T04:55:36.481Z,66.12
2022-12-16T04:56:54.770Z,66.50
2022-12-16T04:58:17.385Z,65.31
2022-12-16T04:59:35.732Z,66.53
2022-12-16T05:00:55.751Z,68.39
2022-12-16T05:02:14.529Z,69.85
2022-12-16T05:03:33.859Z,70.07
2022-12-16T05:04:52.456Z,71.57
2022-12-16T05:06:10.730Z,75.58
2022-12-16T05:07:37.772Z,75.09
2022-12-16T05:08:57.407Z,74.45
2022-12-16T05:10:15.740Z,72.36
2022-12-16T05:11:34.044Z,69.86
2022-12-16T05:12:52.460Z,73.71
2022-12-16T05:14:11.590Z,68.72
2022-12-16T05:15:30.158Z,67.54
2022-12-16T05:16:48.579Z,67.73
2022-12-16T05:18:06.886Z,67.33
2022-12-16T05:19:31.473Z,66.84
2022-12-16T05:20:50.348Z,65.38
2022-12-16T05:22:09.247Z,64.02
2022-12-16T05:23:30.632Z,64.44
2022-12-16T05:24:53.060Z,62.41
2022-12-16T05:26:11.707Z,59.83
2022-12-16T05:27:30.061Z,61.11
2022-12-16T05:28:48.492Z,60.60
2022-12-16T05:30:07.703Z,60.43
2022-12-16T05:31:26.169Z,60.93
2022-12-16T05:32:44.631Z,58.26
2022-12-16T05:34:03.104Z,57.06
2022-12-16T05:35:23.038Z,57.61
2022-12-16T05:36:41.324Z,55.71
2022-12-16T05:37:59.614Z,56.33
2022-12-16T05:39:23.220Z,56.76
2022-12-16T05:40:42.468Z,57.25
2022-12-16T05:42:00.784Z,55.96
2022-12-16T05:43:19.190Z,56.89
2022-12-16T05:44:37.544Z,58.29
2022-12-16T05:45:57.845Z,55.27
2022-12-16T05:47:16.274Z,55.43
2022-12-16T05:48:34.705Z,55.12
2022-12-16T05:49:53.344Z,54.62
2022-12-16T05:51:13.054Z,53.67
2022-12-16T05:52:32.556Z,55.52
2022-12-16T05:53:51.061Z,56.50
2022-12-16T05:55:12.272Z,55.71
2022-12-16T05:56:31.370Z,55.13
2022-12-16T05:57:49.864Z,55.81
2022-12-16T05:59:08.264Z,56.92
2022-12-16T06:00:28.913Z,56.92
2022-12-16T06:01:48.136Z,56.09
2022-12-16T06:03:06.684Z,56.01
2022-12-16T06:04:30.940Z,56.95
2022-12-16T06:05:49.349Z,55.97
2022-12-16T06:07:08.625Z,53.89
2022-12-16T06:08:27.005Z,53.26
2022-12-16T06:09:56.307Z,55.32
2022-12-16T06:11:17.678Z,54.57
2022-12-16T06:12:36.853Z,51.28
2022-12-16T06:13:55.204Z,53.88
2022-12-16T06:15:13.688Z,57.74
2022-12-16T06:16:32.062Z,56.74
2022-12-16T06:17:51.442Z,55.49
2022-12-16T06:19:09.838Z,54.88
2022-12-16T06:20:28.388Z,57.80
2022-12-16T06:21:46.822Z,53.76
2022-12-16T06:23:07.303Z,53.86
2022-12-16T06:24:25.956Z,51.70
2022-12-16T06:25:44.924Z,52.82
2022-12-16T06:27:05.909Z,52.40
2022-12-16T06:28:25.080Z,55.33
2022-12-16T06:29:43.419Z,56.25
2022-12-16T06:31:01.824Z,54.56
2022-12-16T06:32:20.313Z,53.39
2022-12-16T06:33:39.877Z,54.42
2022-12-16T06:34:58.261Z,52.00
2022-12-16T06:36:16.502Z,53.22
2022-12-16T06:37:35.810Z,52.35
2022-12-16T06:38:54.902Z,50.93
2022-12-16T06:40:13.379Z,51.66
2022-12-16T06:41:31.886Z,52.06
2022-12-16T06:42:55.989Z,52.96
2022-12-16T06:44:15.472Z,52.57
2022-12-16T06:45:48.867Z,51.07
2022-12-16T06:47:07.314Z,51.30
2022-12-16T06:48:27.076Z,51.59
2022-12-16T06:49:46.352Z,50.87
2022-12-16T06:51:19.403Z,51.88
2022-12-16T06:52:37.758Z,52.79
2022-12-16T06:53:56.506Z,52.13
2022-12-16T06:55:15.953Z,52.02
2022-12-16T06:56:35.230Z,52.47
2022-12-16T06:57:56.503Z,51.03
2022-12-16T06:59:17.542Z,50.69
2022-12-16T07:00:39.704Z,52.25
2022-12-16T07:01:59.753Z,51.67
2022-12-16T07:03:18.429Z,51.59
2022-12-16T07:04:37.111Z,52.23
2022-12-16T07:05:56.923Z,52.51
2022-12-16T07:07:15.511Z,51.60
2022-12-16T07:08:34.047Z,51.22
2022-12-16T07:09:53.470Z,50.46
2022-12-16T07:11:17.285Z,49.19
2022-12-16T07:12:36.106Z,50.09
2022-12-16T07:14:11.846Z,50.59
2022-12-16T07:15:30.518Z,49.32
2022-12-16T07:16:50.234Z,47.85
2022-12-16T07:18:08.614Z,50.86
2022-12-16T07:19:26.898Z,50.22
2022-12-16T07:20:45.948Z,51.52
2022-12-16T07:22:05.163Z,51.77
2022-12-16T07:23:23.555Z,50.07
2022-12-16T07:24:41.876Z,49.37
2022-12-16T07:26:00.342Z,48.61
2022-12-16T07:27:20.351Z,50.59
2022-12-16T07:28:38.781Z,49.41
2022-12-16T07:29:59.907Z,49.07
2022-12-16T07:31:18.415Z,50.38
2022-12-16T07:32:37.603Z,50.77
2022-12-16T07:33:56.134Z,51.81
2022-12-16T07:35:14.415Z,51.70
2022-12-16T07:36:33.448Z,56.03
2022-12-16T07:37:54.980Z,57.72
2022-12-16T07:39:13.588Z,64.43
2022-12-16T07:40:32.130Z,65.93
2022-12-16T07:41:50.460Z,62.66
2022-12-16T07:43:12.075Z,64.89
2022-12-16T07:44:30.524Z,64.60
2022-12-16T07:45:51.529Z,67.43
2022-12-16T07:47:11.718Z,65.98
2022-12-16T07:48:39.957Z,66.69
2022-12-16T07:49:58.276Z,63.81
2022-12-16T07:51:18.220Z,62.92
2022-12-16T07:52:36.735Z,64.75
2022-12-16T07:54:07.796Z,70.85
2022-12-16T07:55:26.207Z,67.04
2022-12-16T07:56:44.511Z,64.41
2022-12-16T07:58:06.135Z,65.67
2022-12-16T07:59:25.240Z,63.66
2022-12-16T08:00:43.598Z,60.59
2022-12-16T08:02:04.726Z,61.62
2022-12-16T08:03:23.263Z,60.73
2022-12-16T08:04:42.648Z,58.65
2022-12-16T08:06:00.982Z,61.73
2022-12-16T08:07:19.813Z,60.71
2022-12-16T08:08:38.314Z,59.92
2022-12-16T08:09:57.446Z,59.27
2022-12-16T08:11:15.949Z,60.52
2022-12-16T08:12:34.360Z,61.85
2022-12-16T08:13:53.465Z,62.40
2022-12-16T08:15:13.051Z,64.30
2022-12-16T08:16:46.394Z,64.44
2022-12-16T08:18:09.009Z,63.66
2022-12-16T08:19:28.222Z,64.66
2022-12-16T08:20:47.730Z,61.90
2022-12-16T08:22:06.157Z,61.31
2022-12-16T08:23:24.361Z,63.47
2022-12-16T08:24:46.832Z,63.74
2022-12-16T08:26:10.710Z,65.08
2022-12-16T08:27:29.210Z,64.85
2022-12-16T08:28:47.587Z,62.80
2022-12-16T08:30:05.957Z,63.30
2022-12-16T08:31:25.208Z,64.78
2022-12-16T08:32:45.976Z,64.87
2022-12-16T08:34:06.953Z,69.94
2022-12-16T08:35:26.387Z,70.58
2022-12-16T08:36:45.575Z,70.25
2022-12-16T08:38:09.063Z,69.61
2022-12-16T08:39:31.990Z,68.19
2022-12-16T08:40:50.418Z,70.15
2022-12-16T08:42:11.511Z,67.96
2022-12-16T08:43:30.499Z,66.79
2022-12-16T08:44:49.209Z,62.62
2022-12-16T08:46:10.224Z,62.46
2022-12-16T08:47:32.492Z,66.14
2022-12-16T08:48:50.957Z,61.88
2022-12-16T08:50:11.957Z,67.05
2022-12-16T08:51:30.577Z,67.52
2022-12-16T08:52:49.916Z,67.47
2022-12-16T08:54:08.826Z,69.87
2022-12-16T08:55:29.739Z,72.36
2022-12-16T08:56:48.689Z,70.89
2022-12-16T08:58:11.496Z,70.85
2022-12-16T08:59:30.487Z,70.55
2022-12-16T09:00:48.995Z,67.75
2022-12-16T09:02:07.868Z,62.11
2022-12-16T09:03:28.347Z,66.29
2022-12-16T09:04:49.103Z,65.69
2022-12-16T09:06:14.478Z,68.39
2022-12-16T09:07:33.119Z,67.59
2022-12-16T09:08:53.837Z,67.10
2022-12-16T09:10:12.427Z,62.98
2022-12-16T09:11:31.226Z,64.32
2022-12-16T09:12:50.043Z,65.87
2022-12-16T09:14:10.123Z,65.10
2022-12-16T09:15:28.807Z,62.81
2022-12-16T09:16:47.233Z,65.46
2022-12-16T09:18:10.137Z,65.57
2022-12-16T09:19:29.547Z,65.29
2022-12-16T09:20:47.947Z,64.71
2022-12-16T09:22:08.978Z,67.38
2022-12-16T09:23:27.313Z,89.84
2022-12-16T09:24:46.723Z,80.42
2022-12-16T09:26:05.465Z,72.52
2022-12-16T09:27:23.977Z,73.50
2022-12-16T09:28:43.256Z,74.78
2022-12-16T09:30:05.415Z,69.77
2022-12-16T09:31:23.910Z,74.45
2022-12-16T09:32:42.555Z,78.75
2022-12-16T09:34:00.883Z,79.65
2022-12-16T09:35:21.090Z,74.80
2022-12-16T09:36:39.407Z,67.87
2022-12-16T09:38:05.743Z,69.11
2022-12-16T09:39:24.121Z,68.82
2022-12-16T09:40:43.404Z,72.41
2022-12-16T09:42:30.894Z,70.32
2022-12-16T09:44:12.399Z,67.65
2022-12-16T09:45:47.832Z,70.81
2022-12-16T09:47:25.948Z,73.83
2022-12-16T09:49:01.532Z,74.84
2022-12-16T09:50:33.559Z,78.30
2022-12-16T09:51:56.163Z,71.06
2022-12-16T09:53:27.100Z,65.79
2022-12-16T09:55:03.534Z,68.05
2022-12-16T09:56:32.734Z,69.43
2022-12-16T09:57:53.708Z,65.32
2022-12-16T09:59:27.074Z,62.66
2022-12-16T10:00:46.845Z,65.07
2022-12-16T10:02:08.438Z,69.89
2022-12-16T10:03:39.891Z,70.58
2022-12-16T10:05:16.004Z,70.71
2022-12-16T10:06:54.215Z,72.98
2022-12-16T10:08:37.267Z,67.93
2022-12-16T10:10:14.817Z,75.42
2022-12-16T10:11:52.616Z,80.50
2022-12-16T10:13:24.827Z,80.33
2022-12-16T10:14:54.724Z,83.03
2022-12-16T10:16:34.512Z,71.80
2022-12-16T10:18:01.657Z,73.72
2022-12-16T10:19:48.920Z,79.42
2022-12-16T10:21:11.336Z,76.82
2022-12-16T10:22:41.379Z,84.08
2022-12-16T10:24:16.664Z,90.05
2022-12-16T10:25:42.263Z,88.00
2022-12-16T10:27:13.808Z,84.83
2022-12-16T10:28:38.551Z,79.74
2022-12-16T10:30:01.810Z,79.10
2022-12-16T10:31:31.979Z,79.84
2022-12-16T10:32:59.112Z,77.46
2022-12-16T10:34:25.737Z,80.27
2022-12-16T10:35:52.735Z,86.67
2022-12-16T10:37:20.450Z,94.37
2022-12-16T10:38:52.402Z,90.55
2022-12-16T10:40:18.164Z,86.54
2022-12-16T10:41:44.781Z,82.44
2022-12-16T10:43:31.185Z,82.75
2022-12-16T10:45:03.404Z,83.89
2022-12-16T10:46:41.000Z,89.87
2022-12-16T10:48:00.579Z,81.54
2022-12-16T10:49:19.159Z,79.59
2022-12-16T10:50:37.884Z,80.25
2022-12-16T10:51:56.211Z,85.08
2022-12-16T10:53:20.075Z,82.35
2022-12-16T10:54:54.256Z,82.31
2022-12-16T10:56:40.632Z,84.73
2022-12-16T10:58:18.163Z,87.93
2022-12-16T10:59:37.801Z,79.80
2022-12-16T11:01:01.745Z,77.40
2022-12-16T11:02:34.344Z,80.57
2022-12-16T11:03:55.211Z,82.87
2022-12-16T11:05:14.455Z,82.48
2022-12-16T11:06:40.421Z,88.09
2022-12-16T11:08:09.598Z,89.73
2022-12-16T11:09:43.006Z,82.19
2022-12-16T11:11:02.260Z,90.19
2022-12-16T11:12:38.574Z,95.20
2022-12-16T11:13:56.976Z,87.77
2022-12-16T11:15:30.699Z,82.07
2022-12-16T11:16:50.033Z,85.69
2022-12-16T11:18:20.231Z,85.50
2022-12-16T11:19:42.039Z,91.77
2022-12-16T11:21:04.150Z,86.25
2022-12-16T11:22:30.728Z,77.88
2022-12-16T11:23:49.155Z,78.81
2022-12-16T11:25:28.671Z,78.97
2022-12-16T11:26:47.040Z,83.90
2022-12-16T11:28:19.560Z,78.77
2022-12-16T11:29:38.167Z,77.99
2022-12-16T11:30:56.570Z,86.93
2022-12-16T11:32:49.103Z,81.67
2022-12-16T11:34:11.354Z,76.23
2022-12-16T11:35:39.617Z,68.96
2022-12-16T11:37:03.490Z,71.33
2022-12-16T11:38:37.006Z,79.50
2022-12-16T11:40:08.346Z,70.88
2022-12-16T11:41:45.963Z,73.99
2022-12-16T11:43:11.657Z,84.04
2022-12-16T11:44:44.509Z,92.48
2022-12-16T11:46:07.959Z,89.05
2022-12-16T11:47:39.712Z,84.33
2022-12-16T11:49:05.211Z,82.11
2022-12-16T11:50:33.018Z,90.54
2022-12-16T11:52:28.116Z,86.64
2022-12-16T11:53:49.950Z,80.00
2022-12-16T11:55:56.011Z,78.45
2022-12-16T11:57:09.432Z,82.34
2022-12-16T11:58:43.386Z,85.02
2022-12-16T12:00:14.654Z,87.75
2022-12-16T12:01:45.470Z,86.72
2022-12-16T12:03:16.931Z,88.03
2022-12-16T12:04:35.532Z,86.56
2022-12-16T12:06:20.683Z,89.04
2022-12-16T12:07:50.516Z,103.07
2022-12-16T12:09:22.610Z,99.40
2022-12-16T12:11:11.591Z,90.91
2022-12-16T12:12:48.060Z,93.15
2022-12-16T12:14:27.155Z,88.32
2022-12-16T12:16:01.164Z,84.93
2022-12-16T12:17:47.044Z,91.98
2022-12-16T12:19:21.569Z,105.10
2022-12-16T12:21:02.560Z,90.19
2022-12-16T12:22:36.613Z,103.91
2022-12-16T12:24:13.768Z,102.96
2022-12-16T12:25:48.008Z,91.47
2022-12-16T12:27:19.547Z,87.66
2022-12-16T12:28:58.988Z,98.37
2022-12-16T12:30:25.639Z,99.03
2022-12-16T12:32:04.407Z,93.93
2022-12-16T12:33:46.885Z,94.55
2022-12-16T12:35:28.331Z,97.15
2022-12-16T12:37:04.472Z,85.54
2022-12-16T12:38:35.206Z,80.59
2022-12-16T12:40:12.614Z,85.92
2022-12-16T12:41:43.252Z,86.47
2022-12-16T12:43:09.031Z,81.53
2022-12-16T12:44:54.600Z,88.10
2022-12-16T12:46:30.216Z,94.28
2022-12-16T12:48:02.840Z,93.45
2022-12-16T12:49:37.562Z,87.59
2022-12-16T12:51:21.408Z,82.99
2022-12-16T12:53:18.657Z,83.16
2022-12-16T12:54:57.647Z,81.95
2022-12-16T12:56:31.986Z,82.14
2022-12-16T12:57:56.936Z,81.53
2022-12-16T12:59:27.405Z,77.43
2022-12-16T13:00:57.275Z,77.92
2022-12-16T13:02:20.678Z,80.42
2022-12-16T13:03:54.385Z,82.51
2022-12-16T13:05:19.731Z,83.79
2022-12-16T13:06:50.126Z,83.84
2022-12-16T13:08:09.572Z,80.60
2022-12-16T13:09:45.367Z,87.39
2022-12-16T13:11:03.652Z,88.36
2022-12-16T13:12:50.321Z,88.24
2022-12-16T13:14:08.647Z,87.71
2022-12-16T13:15:48.141Z,89.41
2022-12-16T13:17:17.996Z,85.87
2022-12-16T13:18:49.345Z,83.27
2022-12-16T13:20:14.437Z,89.58
2022-12-16T13:22:02.205Z,78.13
2022-12-16T13:23:46.939Z,82.91
2022-12-16T13:25:08.130Z,76.97
2022-12-16T13:26:26.631Z,81.11
2022-12-16T13:28:05.003Z,77.26
2022-12-16T13:29:38.350Z,78.52
2022-12-16T13:31:25.255Z,75.51
2022-12-16T13:32:44.664Z,81.88
2022-12-16T13:34:12.540Z,78.46
2022-12-16T13:35:34.438Z,78.55
2022-12-16T13:36:55.924Z,79.88
2022-12-16T13:38:18.655Z,80.92
2022-12-16T13:39:42.744Z,78.29
2022-12-16T13:41:11.912Z,73.19
2022-12-16T13:43:05.159Z,76.32
2022-12-16T13:44:24.897Z,87.64
2022-12-16T13:45:50.988Z,93.38
2022-12-16T13:47:12.368Z,88.01
2022-12-16T13:48:58.702Z,85.69
2022-12-16T13:50:53.247Z,86.94
2022-12-16T13:52:27.707Z,77.37
2022-12-16T13:53:53.670Z,81.60
2022-12-16T13:55:30.530Z,82.63
2022-12-16T13:56:56.977Z,80.90
2022-12-16T13:58:29.121Z,83.94
2022-12-16T13:59:49.030Z,84.05
2022-12-16T14:01:21.211Z,83.58
2022-12-16T14:02:54.077Z,82.69
2022-12-16T14:04:16.223Z,77.58
2022-12-16T14:05:44.696Z,81.14
2022-12-16T14:07:05.721Z,76.28
2022-12-16T14:08:43.103Z,78.01
2022-12-16T14:10:05.397Z,78.23
2022-12-16T14:11:40.189Z,85.55
2022-12-16T14:13:21.877Z,98.16
2022-12-16T14:14:51.273Z,105.66
2022-12-16T14:16:26.431Z,118.04
2022-12-16T14:18:01.094Z,137.23
2022-12-16T14:19:44.133Z,134.34
2022-12-16T14:21:13.611Z,134.67
2022-12-16T14:22:58.345Z,106.53
2022-12-16T14:24:35.896Z,100.61
2022-12-16T14:26:00.644Z,97.87
2022-12-16T14:27:32.799Z,101.64
2022-12-16T14:28:54.976Z,100.69
2022-12-16T14:30:14.931Z,135.87
2022-12-16T14:31:39.630Z,120.01
2022-12-16T14:32:58.165Z,105.80
2022-12-16T14:34:19.404Z,100.40
2022-12-16T14:35:42.806Z,102.72
2022-12-16T14:37:04.470Z,109.60
2022-12-16T14:38:42.289Z,127.79
2022-12-16T14:40:05.825Z,133.25
2022-12-16T14:41:30.290Z,127.99
2022-12-16T14:42:48.867Z,130.65
2022-12-16T14:44:09.981Z,116.28
2022-12-16T14:45:44.834Z,137.33
2022-12-16T14:47:08.358Z,122.79
2022-12-16T14:48:37.481Z,111.13
2022-12-16T14:50:08.049Z,103.16
2022-12-16T14:51:45.734Z,106.95
2022-12-16T14:53:29.565Z,103.13
2022-12-16T14:54:54.785Z,104.20
2022-12-16T14:56:31.103Z,107.59
2022-12-16T14:57:50.112Z,99.21
2022-12-16T14:59:29.792Z,110.06
2022-12-16T15:00:54.751Z,112.62
2022-12-16T15:02:35.861Z,108.74
2022-12-16T15:03:59.569Z,104.94
2022-12-16T15:05:20.800Z,101.32
2022-12-16T15:06:45.383Z,106.55
2022-12-16T15:08:07.050Z,107.53
2022-12-16T15:09:39.430Z,113.20
2022-12-16T15:10:59.758Z,109.59
2022-12-16T15:12:19.426Z,107.42
2022-12-16T15:13:38.713Z,104.53
2022-12-16T15:14:58.584Z,118.00
2022-12-16T15:16:21.841Z,128.57
2022-12-16T15:17:47.015Z,147.05
2022-12-16T15:19:16.312Z,148.49
2022-12-16T15:20:41.801Z,113.53
2022-12-16T15:22:02.565Z,108.62
2022-12-16T15:23:35.248Z,108.11
2022-12-16T15:25:03.859Z,108.65
2022-12-16T15:26:24.303Z,112.14
2022-12-16T15:27:51.809Z,118.90
2022-12-16T15:29:10.601Z,120.60
2022-12-16T15:30:52.303Z,119.68
2022-12-16T15:32:10.637Z,135.69
2022-12-16T15:33:34.961Z,155.65
2022-12-16T15:35:03.791Z,152.66
2022-12-16T15:36:40.627Z,142.34
2022-12-16T15:38:03.897Z,133.24
2022-12-16T15:39:52.233Z,130.61
2022-12-16T15:41:10.729Z,143.22
2022-12-16T15:42:39.804Z,151.27
2022-12-16T15:44:03.095Z,143.02
2022-12-16T15:45:35.617Z,125.49
2022-12-16T15:46:54.343Z,142.45
2022-12-16T15:48:14.143Z,142.68
2022-12-16T15:49:39.972Z,133.94
2022-12-16T15:51:09.407Z,144.53
2022-12-16T15:52:53.209Z,122.28
2022-12-16T15:54:19.430Z,126.80
2022-12-16T15:55:47.904Z,130.40
2022-12-16T15:57:07.050Z,132.21
2022-12-16T15:58:40.067Z,137.02
2022-12-16T16:00:13.508Z,147.94
2022-12-16T16:01:36.629Z,159.55
2022-12-16T16:03:04.324Z,152.97
2022-12-16T16:04:37.412Z,133.52
2022-12-16T16:05:56.171Z,126.77
2022-12-16T16:07:14.858Z,126.93
2022-12-16T16:08:34.341Z,121.07
2022-12-16T16:09:55.064Z,122.02
2022-12-16T16:11:16.423Z,118.84
2022-12-16T16:12:38.178Z,134.46
2022-12-16T16:14:04.241Z,146.71
2022-12-16T16:15:28.801Z,142.19
2022-12-16T16:16:48.099Z,124.65
2022-12-16T16:18:12.186Z,117.97
2022-12-16T16:19:39.827Z,113.15
2022-12-16T16:21:05.351Z,116.71
2022-12-16T16:22:28.938Z,121.90
2022-12-16T16:23:50.928Z,119.93
2022-12-16T16:25:10.480Z,116.52
2022-12-16T16:26:37.244Z,111.69
2022-12-16T16:27:55.561Z,113.22
2022-12-16T16:29:14.084Z,108.04
2022-12-16T16:30:33.371Z,113.88
2022-12-16T16:31:51.740Z,107.01
2022-12-16T16:33:12.806Z,102.97
2022-12-16T16:34:32.027Z,99.17
2022-12-16T16:35:51.289Z,102.63
2022-12-16T16:37:14.612Z,101.02
2022-12-16T16:38:33.038Z,99.52
2022-12-16T16:39:51.338Z,100.71
2022-12-16T16:41:11.039Z,105.62
2022-12-16T16:42:31.993Z,117.21
2022-12-16T16:43:50.404Z,114.97
2022-12-16T16:45:10.935Z,112.40
2022-12-16T16:46:49.963Z,121.38
2022-12-16T16:48:19.761Z,133.51
2022-12-16T16:49:44.530Z,128.77
2022-12-16T16:51:03.384Z,123.90
2022-12-16T16:52:27.809Z,117.84
2022-12-16T16:53:46.195Z,111.41
2022-12-16T16:55:04.527Z,126.84
2022-12-16T16:56:27.622Z,115.09
2022-12-16T16:57:53.581Z,109.90
2022-12-16T16:59:11.980Z,99.75
2022-12-16T17:00:32.007Z,93.84
2022-12-16T17:01:51.224Z,92.22
2022-12-16T17:03:10.914Z,93.66
2022-12-16T17:04:29.453Z,89.20
2022-12-16T17:05:48.010Z,93.03
2022-12-16T17:07:06.761Z,101.72
2022-12-16T17:08:26.033Z,99.24
2022-12-16T17:09:44.520Z,98.03
2022-12-16T17:11:03.493Z,104.86
2022-12-16T17:12:35.551Z,114.04
2022-12-16T17:13:57.380Z,109.97
2022-12-16T17:15:15.836Z,111.66
2022-12-16T17:16:34.222Z,106.07